Meadville, Missouri
Current Conditions -  °F | °C
As of 2:55 PM on Thursday 27 Nov 2014 (Local Time) from KIRK Reporting Station
Broken Clouds Broken Clouds  
Wind Chill: 18°   Ceiling: 7000
Heat Index: 26°   Visibility: 10mi
Dew Point: 15°   Wind: 7mph
Humidity: 63%   Direction: 360°N
Pressure: 30.45"   Gusts: NA
Location:  39.78°N, 93.3°W
Report Text: KIRK 272055Z AUTO 36006KT 10SM SCT050 BKN070 M03/M09 A3045 RMK AO2 SLP327 T10331094 56015
Loading
Personal Weather Stations






























Interactive Weather Map New forecast layout! Learn more

10-Day Weather Forecast

Advertisements
Track Severe Weather on mobile